<?xml version="1.0" encoding="UTF-8" standalone="no" ?>
<gpx xmlns="http://www.topografix.com/GPX/1/1" xmlns:xsi="http://www.w3.org/2001/XMLSchema-instance" xsi:schemaLocation="http://www.topografix.com/GPX/1/1 http://www.topografix.com/GPX/1/1/gpx.xsd" version="1.1" creator="VisuGPX - https://www.visugpx.com">
  <metadata>
    <name>Arbir0816</name>
    <desc><![CDATA[avec Erwann, Gauvain et Rudy]]></desc>
  </metadata>
  <trk>
    <name><![CDATA[Tracé actuel: 24 AOU 2016 11:31]]></name>
    <trkseg>
      <trkpt lat="47.40035" lon="-2.97087">
        <ele>-11.4</ele>
        <time>2016-08-24T09:31:29Z</time>
      </trkpt>
      <trkpt lat="47.40041" lon="-2.97102">
        <ele>-13.32</ele>
        <time>2016-08-24T09:31:35Z</time>
      </trkpt>
      <trkpt lat="47.40062" lon="-2.97132">
        <ele>-13.8</ele>
        <time>2016-08-24T09:31:54Z</time>
      </trkpt>
      <trkpt lat="47.40082" lon="-2.97164">
        <ele>0.62</ele>
        <time>2016-08-24T09:32:09Z</time>
      </trkpt>
      <trkpt lat="47.40105" lon="-2.97201">
        <ele>0.14</ele>
        <time>2016-08-24T09:32:28Z</time>
      </trkpt>
      <trkpt lat="47.40129" lon="-2.97238">
        <ele>0.14</ele>
        <time>2016-08-24T09:32:48Z</time>
      </trkpt>
      <trkpt lat="47.40149" lon="-2.97266">
        <ele>0.14</ele>
        <time>2016-08-24T09:33:04Z</time>
      </trkpt>
      <trkpt lat="47.4017" lon="-2.97303">
        <ele>-0.34</ele>
        <time>2016-08-24T09:33:23Z</time>
      </trkpt>
      <trkpt lat="47.40191" lon="-2.97334">
        <ele>0.14</ele>
        <time>2016-08-24T09:33:40Z</time>
      </trkpt>
      <trkpt lat="47.40217" lon="-2.97368">
        <ele>1.1</ele>
        <time>2016-08-24T09:34:00Z</time>
      </trkpt>
      <trkpt lat="47.40245" lon="-2.97396">
        <ele>1.1</ele>
        <time>2016-08-24T09:34:20Z</time>
      </trkpt>
      <trkpt lat="47.40272" lon="-2.97423">
        <ele>1.58</ele>
        <time>2016-08-24T09:34:39Z</time>
      </trkpt>
      <trkpt lat="47.40293" lon="-2.97451">
        <ele>1.58</ele>
        <time>2016-08-24T09:34:55Z</time>
      </trkpt>
      <trkpt lat="47.40313" lon="-2.9749">
        <ele>0.14</ele>
        <time>2016-08-24T09:35:14Z</time>
      </trkpt>
      <trkpt lat="47.40328" lon="-2.97532">
        <ele>0.62</ele>
        <time>2016-08-24T09:35:32Z</time>
      </trkpt>
      <trkpt lat="47.40341" lon="-2.97579">
        <ele>0.14</ele>
        <time>2016-08-24T09:35:51Z</time>
      </trkpt>
      <trkpt lat="47.40354" lon="-2.97629">
        <ele>0.62</ele>
        <time>2016-08-24T09:36:10Z</time>
      </trkpt>
      <trkpt lat="47.40364" lon="-2.97676">
        <ele>1.58</ele>
        <time>2016-08-24T09:36:28Z</time>
      </trkpt>
      <trkpt lat="47.40377" lon="-2.97731">
        <ele>2.06</ele>
        <time>2016-08-24T09:36:49Z</time>
      </trkpt>
      <trkpt lat="47.40387" lon="-2.97781">
        <ele>1.58</ele>
        <time>2016-08-24T09:37:08Z</time>
      </trkpt>
      <trkpt lat="47.40397" lon="-2.97829">
        <ele>2.06</ele>
        <time>2016-08-24T09:37:26Z</time>
      </trkpt>
      <trkpt lat="47.40404" lon="-2.97873">
        <ele>2.06</ele>
        <time>2016-08-24T09:37:42Z</time>
      </trkpt>
      <trkpt lat="47.40412" lon="-2.97915">
        <ele>1.1</ele>
        <time>2016-08-24T09:37:58Z</time>
      </trkpt>
      <trkpt lat="47.40426" lon="-2.97961">
        <ele>0.14</ele>
        <time>2016-08-24T09:38:16Z</time>
      </trkpt>
      <trkpt lat="47.40442" lon="-2.98007">
        <ele>0.62</ele>
        <time>2016-08-24T09:38:34Z</time>
      </trkpt>
      <trkpt lat="47.40458" lon="-2.98042">
        <ele>0.14</ele>
        <time>2016-08-24T09:38:49Z</time>
      </trkpt>
      <trkpt lat="47.40476" lon="-2.98079">
        <ele>0.14</ele>
        <time>2016-08-24T09:39:06Z</time>
      </trkpt>
      <trkpt lat="47.40487" lon="-2.98122">
        <ele>0.14</ele>
        <time>2016-08-24T09:39:22Z</time>
      </trkpt>
      <trkpt lat="47.40498" lon="-2.98168">
        <ele>0.62</ele>
        <time>2016-08-24T09:39:39Z</time>
      </trkpt>
      <trkpt lat="47.40507" lon="-2.9822">
        <ele>1.1</ele>
        <time>2016-08-24T09:39:58Z</time>
      </trkpt>
      <trkpt lat="47.40515" lon="-2.98271">
        <ele>0.62</ele>
        <time>2016-08-24T09:40:16Z</time>
      </trkpt>
      <trkpt lat="47.40526" lon="-2.98315">
        <ele>0.62</ele>
        <time>2016-08-24T09:40:32Z</time>
      </trkpt>
      <trkpt lat="47.40537" lon="-2.98359">
        <ele>-0.34</ele>
        <time>2016-08-24T09:40:48Z</time>
      </trkpt>
      <trkpt lat="47.40546" lon="-2.98409">
        <ele>0.14</ele>
        <time>2016-08-24T09:41:06Z</time>
      </trkpt>
      <trkpt lat="47.40558" lon="-2.98456">
        <ele>0.14</ele>
        <time>2016-08-24T09:41:23Z</time>
      </trkpt>
      <trkpt lat="47.4057" lon="-2.98506">
        <ele>0.62</ele>
        <time>2016-08-24T09:41:41Z</time>
      </trkpt>
      <trkpt lat="47.40583" lon="-2.98554">
        <ele>0.14</ele>
        <time>2016-08-24T09:41:58Z</time>
      </trkpt>
      <trkpt lat="47.40601" lon="-2.98607">
        <ele>0.62</ele>
        <time>2016-08-24T09:42:18Z</time>
      </trkpt>
      <trkpt lat="47.40615" lon="-2.9865">
        <ele>0.14</ele>
        <time>2016-08-24T09:42:34Z</time>
      </trkpt>
      <trkpt lat="47.40625" lon="-2.98696">
        <ele>0.62</ele>
        <time>2016-08-24T09:42:50Z</time>
      </trkpt>
      <trkpt lat="47.40634" lon="-2.98742">
        <ele>1.58</ele>
        <time>2016-08-24T09:43:06Z</time>
      </trkpt>
      <trkpt lat="47.40643" lon="-2.98784">
        <ele>1.58</ele>
        <time>2016-08-24T09:43:21Z</time>
      </trkpt>
      <trkpt lat="47.40649" lon="-2.98827">
        <ele>1.1</ele>
        <time>2016-08-24T09:43:36Z</time>
      </trkpt>
      <trkpt lat="47.40655" lon="-2.9887">
        <ele>0.14</ele>
        <time>2016-08-24T09:43:50Z</time>
      </trkpt>
      <trkpt lat="47.40661" lon="-2.98916">
        <ele>0.62</ele>
        <time>2016-08-24T09:44:06Z</time>
      </trkpt>
      <trkpt lat="47.40668" lon="-2.98957">
        <ele>0.62</ele>
        <time>2016-08-24T09:44:20Z</time>
      </trkpt>
      <trkpt lat="47.40676" lon="-2.99006">
        <ele>0.62</ele>
        <time>2016-08-24T09:44:37Z</time>
      </trkpt>
      <trkpt lat="47.40682" lon="-2.9905">
        <ele>0.62</ele>
        <time>2016-08-24T09:44:52Z</time>
      </trkpt>
      <trkpt lat="47.40686" lon="-2.99098">
        <ele>1.1</ele>
        <time>2016-08-24T09:45:08Z</time>
      </trkpt>
      <trkpt lat="47.40687" lon="-2.99159">
        <ele>1.1</ele>
        <time>2016-08-24T09:45:28Z</time>
      </trkpt>
      <trkpt lat="47.40686" lon="-2.9921">
        <ele>1.1</ele>
        <time>2016-08-24T09:45:45Z</time>
      </trkpt>
      <trkpt lat="47.4069" lon="-2.99256">
        <ele>1.1</ele>
        <time>2016-08-24T09:46:00Z</time>
      </trkpt>
      <trkpt lat="47.40698" lon="-2.99317">
        <ele>0.14</ele>
        <time>2016-08-24T09:46:20Z</time>
      </trkpt>
      <trkpt lat="47.40703" lon="-2.99363">
        <ele>0.62</ele>
        <time>2016-08-24T09:46:35Z</time>
      </trkpt>
      <trkpt lat="47.40706" lon="-2.9941">
        <ele>0.14</ele>
        <time>2016-08-24T09:46:50Z</time>
      </trkpt>
      <trkpt lat="47.40706" lon="-2.99465">
        <ele>0.14</ele>
        <time>2016-08-24T09:47:07Z</time>
      </trkpt>
      <trkpt lat="47.40705" lon="-2.99515">
        <ele>0.62</ele>
        <time>2016-08-24T09:47:23Z</time>
      </trkpt>
      <trkpt lat="47.40707" lon="-2.99563">
        <ele>0.14</ele>
        <time>2016-08-24T09:47:38Z</time>
      </trkpt>
      <trkpt lat="47.40702" lon="-2.99613">
        <ele>0.62</ele>
        <time>2016-08-24T09:47:54Z</time>
      </trkpt>
      <trkpt lat="47.40694" lon="-2.99664">
        <ele>1.1</ele>
        <time>2016-08-24T09:48:10Z</time>
      </trkpt>
      <trkpt lat="47.40681" lon="-2.99723">
        <ele>0.14</ele>
        <time>2016-08-24T09:48:29Z</time>
      </trkpt>
      <trkpt lat="47.40667" lon="-2.9978">
        <ele>-0.82</ele>
        <time>2016-08-24T09:48:48Z</time>
      </trkpt>
      <trkpt lat="47.40656" lon="-2.99832">
        <ele>-0.82</ele>
        <time>2016-08-24T09:49:05Z</time>
      </trkpt>
      <trkpt lat="47.40648" lon="-2.99886">
        <ele>0.14</ele>
        <time>2016-08-24T09:49:23Z</time>
      </trkpt>
      <trkpt lat="47.40638" lon="-2.99935">
        <ele>-0.82</ele>
        <time>2016-08-24T09:49:40Z</time>
      </trkpt>
      <trkpt lat="47.40628" lon="-2.99988">
        <ele>-0.34</ele>
        <time>2016-08-24T09:49:58Z</time>
      </trkpt>
      <trkpt lat="47.40617" lon="-3.0004">
        <ele>0.14</ele>
        <time>2016-08-24T09:50:16Z</time>
      </trkpt>
      <trkpt lat="47.40604" lon="-3.00086">
        <ele>0.62</ele>
        <time>2016-08-24T09:50:33Z</time>
      </trkpt>
      <trkpt lat="47.40584" lon="-3.0012">
        <ele>1.58</ele>
        <time>2016-08-24T09:50:48Z</time>
      </trkpt>
      <trkpt lat="47.40555" lon="-3.00146">
        <ele>1.58</ele>
        <time>2016-08-24T09:51:04Z</time>
      </trkpt>
      <trkpt lat="47.40525" lon="-3.00175">
        <ele>1.58</ele>
        <time>2016-08-24T09:51:21Z</time>
      </trkpt>
      <trkpt lat="47.40502" lon="-3.00195">
        <ele>1.58</ele>
        <time>2016-08-24T09:51:34Z</time>
      </trkpt>
      <trkpt lat="47.40472" lon="-3.00223">
        <ele>1.1</ele>
        <time>2016-08-24T09:51:51Z</time>
      </trkpt>
      <trkpt lat="47.40441" lon="-3.00255">
        <ele>1.1</ele>
        <time>2016-08-24T09:52:09Z</time>
      </trkpt>
      <trkpt lat="47.40407" lon="-3.00269">
        <ele>1.58</ele>
        <time>2016-08-24T09:52:27Z</time>
      </trkpt>
      <trkpt lat="47.40371" lon="-3.00276">
        <ele>1.58</ele>
        <time>2016-08-24T09:52:45Z</time>
      </trkpt>
      <trkpt lat="47.40344" lon="-3.00278">
        <ele>2.06</ele>
        <time>2016-08-24T09:52:59Z</time>
      </trkpt>
      <trkpt lat="47.40311" lon="-3.00283">
        <ele>2.06</ele>
        <time>2016-08-24T09:53:16Z</time>
      </trkpt>
      <trkpt lat="47.40278" lon="-3.00307">
        <ele>1.58</ele>
        <time>2016-08-24T09:53:34Z</time>
      </trkpt>
      <trkpt lat="47.40251" lon="-3.00333">
        <ele>1.58</ele>
        <time>2016-08-24T09:53:50Z</time>
      </trkpt>
      <trkpt lat="47.40217" lon="-3.00364">
        <ele>1.1</ele>
        <time>2016-08-24T09:54:09Z</time>
      </trkpt>
      <trkpt lat="47.40186" lon="-3.00398">
        <ele>1.1</ele>
        <time>2016-08-24T09:54:28Z</time>
      </trkpt>
      <trkpt lat="47.40158" lon="-3.00427">
        <ele>2.06</ele>
        <time>2016-08-24T09:54:45Z</time>
      </trkpt>
      <trkpt lat="47.40124" lon="-3.00457">
        <ele>2.54</ele>
        <time>2016-08-24T09:55:04Z</time>
      </trkpt>
      <trkpt lat="47.40091" lon="-3.00481">
        <ele>2.54</ele>
        <time>2016-08-24T09:55:21Z</time>
      </trkpt>
      <trkpt lat="47.40064" lon="-3.00497">
        <ele>2.06</ele>
        <time>2016-08-24T09:55:35Z</time>
      </trkpt>
      <trkpt lat="47.40028" lon="-3.00515">
        <ele>1.58</ele>
        <time>2016-08-24T09:55:53Z</time>
      </trkpt>
      <trkpt lat="47.39999" lon="-3.00523">
        <ele>2.06</ele>
        <time>2016-08-24T09:56:07Z</time>
      </trkpt>
      <trkpt lat="47.39977" lon="-3.00525">
        <ele>1.58</ele>
        <time>2016-08-24T09:56:18Z</time>
      </trkpt>
      <trkpt lat="47.39941" lon="-3.00524">
        <ele>1.1</ele>
        <time>2016-08-24T09:56:36Z</time>
      </trkpt>
      <trkpt lat="47.39911" lon="-3.00521">
        <ele>1.1</ele>
        <time>2016-08-24T09:56:52Z</time>
      </trkpt>
      <trkpt lat="47.3988" lon="-3.00512">
        <ele>1.1</ele>
        <time>2016-08-24T09:57:08Z</time>
      </trkpt>
      <trkpt lat="47.39878" lon="-3.00511">
        <ele>1.1</ele>
        <time>2016-08-24T09:57:09Z</time>
      </trkpt>
      <trkpt lat="47.3987" lon="-3.00508">
        <ele>1.1</ele>
        <time>2016-08-24T09:57:13Z</time>
      </trkpt>
      <trkpt lat="47.3984" lon="-3.00497">
        <ele>1.58</ele>
        <time>2016-08-24T09:57:29Z</time>
      </trkpt>
      <trkpt lat="47.39812" lon="-3.00481">
        <ele>1.1</ele>
        <time>2016-08-24T09:57:45Z</time>
      </trkpt>
      <trkpt lat="47.39786" lon="-3.00461">
        <ele>1.1</ele>
        <time>2016-08-24T09:58:01Z</time>
      </trkpt>
      <trkpt lat="47.39765" lon="-3.00436">
        <ele>1.1</ele>
        <time>2016-08-24T09:58:16Z</time>
      </trkpt>
      <trkpt lat="47.3975" lon="-3.00405">
        <ele>1.58</ele>
        <time>2016-08-24T09:58:31Z</time>
      </trkpt>
      <trkpt lat="47.39742" lon="-3.00364">
        <ele>1.58</ele>
        <time>2016-08-24T09:58:48Z</time>
      </trkpt>
      <trkpt lat="47.3973" lon="-3.00331">
        <ele>1.58</ele>
        <time>2016-08-24T09:59:03Z</time>
      </trkpt>
      <trkpt lat="47.39716" lon="-3.003">
        <ele>0.62</ele>
        <time>2016-08-24T09:59:17Z</time>
      </trkpt>
      <trkpt lat="47.39699" lon="-3.00265">
        <ele>0.62</ele>
        <time>2016-08-24T09:59:34Z</time>
      </trkpt>
      <trkpt lat="47.39686" lon="-3.00229">
        <ele>0.62</ele>
        <time>2016-08-24T09:59:50Z</time>
      </trkpt>
      <trkpt lat="47.39672" lon="-3.00187">
        <ele>1.1</ele>
        <time>2016-08-24T10:00:08Z</time>
      </trkpt>
      <trkpt lat="47.39664" lon="-3.00159">
        <ele>1.58</ele>
        <time>2016-08-24T10:00:20Z</time>
      </trkpt>
      <trkpt lat="47.39652" lon="-3.00115">
        <ele>1.58</ele>
        <time>2016-08-24T10:00:38Z</time>
      </trkpt>
      <trkpt lat="47.39645" lon="-3.00079">
        <ele>1.58</ele>
        <time>2016-08-24T10:00:53Z</time>
      </trkpt>
      <trkpt lat="47.39637" lon="-3.00037">
        <ele>1.1</ele>
        <time>2016-08-24T10:01:10Z</time>
      </trkpt>
      <trkpt lat="47.3963" lon="-2.99998">
        <ele>1.1</ele>
        <time>2016-08-24T10:01:26Z</time>
      </trkpt>
      <trkpt lat="47.39631" lon="-2.99951">
        <ele>0.62</ele>
        <time>2016-08-24T10:01:45Z</time>
      </trkpt>
      <trkpt lat="47.39631" lon="-2.99903">
        <ele>0.62</ele>
        <time>2016-08-24T10:02:04Z</time>
      </trkpt>
      <trkpt lat="47.39631" lon="-2.99855">
        <ele>1.1</ele>
        <time>2016-08-24T10:02:23Z</time>
      </trkpt>
      <trkpt lat="47.3963" lon="-2.9981">
        <ele>1.1</ele>
        <time>2016-08-24T10:02:41Z</time>
      </trkpt>
      <trkpt lat="47.3963" lon="-2.99756">
        <ele>1.58</ele>
        <time>2016-08-24T10:03:02Z</time>
      </trkpt>
      <trkpt lat="47.39634" lon="-2.99705">
        <ele>1.58</ele>
        <time>2016-08-24T10:03:22Z</time>
      </trkpt>
      <trkpt lat="47.39635" lon="-2.99661">
        <ele>0.62</ele>
        <time>2016-08-24T10:03:40Z</time>
      </trkpt>
      <trkpt lat="47.39634" lon="-2.99614">
        <ele>0.62</ele>
        <time>2016-08-24T10:03:58Z</time>
      </trkpt>
      <trkpt lat="47.39635" lon="-2.99569">
        <ele>1.1</ele>
        <time>2016-08-24T10:04:16Z</time>
      </trkpt>
      <trkpt lat="47.39642" lon="-2.99516">
        <ele>1.1</ele>
        <time>2016-08-24T10:04:37Z</time>
      </trkpt>
      <trkpt lat="47.39653" lon="-2.99469">
        <ele>1.1</ele>
        <time>2016-08-24T10:04:57Z</time>
      </trkpt>
      <trkpt lat="47.3966" lon="-2.99421">
        <ele>0.62</ele>
        <time>2016-08-24T10:05:17Z</time>
      </trkpt>
      <trkpt lat="47.39664" lon="-2.99387">
        <ele>1.1</ele>
        <time>2016-08-24T10:05:34Z</time>
      </trkpt>
      <trkpt lat="47.39665" lon="-2.99385">
        <ele>1.1</ele>
        <time>2016-08-24T10:05:35Z</time>
      </trkpt>
      <trkpt lat="47.3967" lon="-2.99357">
        <ele>0.62</ele>
        <time>2016-08-24T10:05:56Z</time>
      </trkpt>
      <trkpt lat="47.39676" lon="-2.99336">
        <ele>0.14</ele>
        <time>2016-08-24T10:06:16Z</time>
      </trkpt>
      <trkpt lat="47.39678" lon="-2.99318">
        <ele>0.62</ele>
        <time>2016-08-24T10:06:34Z</time>
      </trkpt>
      <trkpt lat="47.39684" lon="-2.99305">
        <ele>1.1</ele>
        <time>2016-08-24T10:06:53Z</time>
      </trkpt>
      <trkpt lat="47.39695" lon="-2.99305">
        <ele>1.1</ele>
        <time>2016-08-24T10:07:11Z</time>
      </trkpt>
      <trkpt lat="47.39706" lon="-2.99311">
        <ele>1.58</ele>
        <time>2016-08-24T10:07:29Z</time>
      </trkpt>
      <trkpt lat="47.39714" lon="-2.99317">
        <ele>2.54</ele>
        <time>2016-08-24T10:07:47Z</time>
      </trkpt>
      <trkpt lat="47.39717" lon="-2.99321">
        <ele>1.58</ele>
        <time>2016-08-24T10:08:06Z</time>
      </trkpt>
      <trkpt lat="47.39717" lon="-2.9932">
        <ele>1.58</ele>
        <time>2016-08-24T10:08:20Z</time>
      </trkpt>
      <trkpt lat="47.39713" lon="-2.99312">
        <ele>2.06</ele>
        <time>2016-08-24T10:08:37Z</time>
      </trkpt>
      <trkpt lat="47.3971" lon="-2.99307">
        <ele>1.58</ele>
        <time>2016-08-24T10:08:53Z</time>
      </trkpt>
      <trkpt lat="47.39708" lon="-2.99303">
        <ele>2.06</ele>
        <time>2016-08-24T10:09:08Z</time>
      </trkpt>
      <trkpt lat="47.39708" lon="-2.99302">
        <ele>1.58</ele>
        <time>2016-08-24T10:09:26Z</time>
      </trkpt>
      <trkpt lat="47.39709" lon="-2.99301">
        <ele>1.1</ele>
        <time>2016-08-24T10:09:42Z</time>
      </trkpt>
      <trkpt lat="47.39709" lon="-2.99301">
        <ele>1.1</ele>
        <time>2016-08-24T10:10:00Z</time>
      </trkpt>
      <trkpt lat="47.39709" lon="-2.99302">
        <ele>0.62</ele>
        <time>2016-08-24T10:10:16Z</time>
      </trkpt>
      <trkpt lat="47.39708" lon="-2.99303">
        <ele>0.14</ele>
        <time>2016-08-24T10:10:34Z</time>
      </trkpt>
      <trkpt lat="47.39708" lon="-2.99303">
        <ele>0.14</ele>
        <time>2016-08-24T10:10:49Z</time>
      </trkpt>
      <trkpt lat="47.39708" lon="-2.99304">
        <ele>0.14</ele>
        <time>2016-08-24T10:11:07Z</time>
      </trkpt>
      <trkpt lat="47.39709" lon="-2.99303">
        <ele>0.62</ele>
        <time>2016-08-24T10:11:18Z</time>
      </trkpt>
      <trkpt lat="47.39709" lon="-2.99303">
        <ele>1.1</ele>
        <time>2016-08-24T10:11:23Z</time>
      </trkpt>
      <trkpt lat="47.3967" lon="-3.00745">
        <ele>-1.3</ele>
        <time>2016-08-24T12:09:44Z</time>
      </trkpt>
      <trkpt lat="47.39665" lon="-3.00761">
        <ele>2.54</ele>
        <time>2016-08-24T12:10:03Z</time>
      </trkpt>
      <trkpt lat="47.3966" lon="-3.00781">
        <ele>3.5</ele>
        <time>2016-08-24T12:10:20Z</time>
      </trkpt>
      <trkpt lat="47.39655" lon="-3.00799">
        <ele>2.06</ele>
        <time>2016-08-24T12:10:35Z</time>
      </trkpt>
      <trkpt lat="47.39648" lon="-3.00829">
        <ele>1.1</ele>
        <time>2016-08-24T12:10:53Z</time>
      </trkpt>
      <trkpt lat="47.39642" lon="-3.00858">
        <ele>0.14</ele>
        <time>2016-08-24T12:11:10Z</time>
      </trkpt>
      <trkpt lat="47.39636" lon="-3.00891">
        <ele>-0.34</ele>
        <time>2016-08-24T12:11:30Z</time>
      </trkpt>
      <trkpt lat="47.39629" lon="-3.00918">
        <ele>-0.34</ele>
        <time>2016-08-24T12:11:45Z</time>
      </trkpt>
      <trkpt lat="47.39625" lon="-3.00948">
        <ele>-0.34</ele>
        <time>2016-08-24T12:12:03Z</time>
      </trkpt>
      <trkpt lat="47.39626" lon="-3.0098">
        <ele>-0.82</ele>
        <time>2016-08-24T12:12:22Z</time>
      </trkpt>
      <trkpt lat="47.39628" lon="-3.01014">
        <ele>-0.82</ele>
        <time>2016-08-24T12:12:42Z</time>
      </trkpt>
      <trkpt lat="47.39629" lon="-3.01027">
        <ele>-0.82</ele>
        <time>2016-08-24T12:12:50Z</time>
      </trkpt>
      <trkpt lat="47.39627" lon="-3.01059">
        <ele>0.14</ele>
        <time>2016-08-24T12:13:11Z</time>
      </trkpt>
      <trkpt lat="47.39621" lon="-3.01096">
        <ele>0.62</ele>
        <time>2016-08-24T12:13:34Z</time>
      </trkpt>
      <trkpt lat="47.39611" lon="-3.01125">
        <ele>-0.34</ele>
        <time>2016-08-24T12:13:52Z</time>
      </trkpt>
      <trkpt lat="47.39591" lon="-3.01156">
        <ele>0.62</ele>
        <time>2016-08-24T12:14:12Z</time>
      </trkpt>
      <trkpt lat="47.39586" lon="-3.01185">
        <ele>0.62</ele>
        <time>2016-08-24T12:14:29Z</time>
      </trkpt>
      <trkpt lat="47.39586" lon="-3.01201">
        <ele>0.14</ele>
        <time>2016-08-24T12:14:47Z</time>
      </trkpt>
      <trkpt lat="47.39588" lon="-3.01203">
        <ele>0.14</ele>
        <time>2016-08-24T12:14:51Z</time>
      </trkpt>
      <trkpt lat="47.39592" lon="-3.01235">
        <ele>0.14</ele>
        <time>2016-08-24T12:15:06Z</time>
      </trkpt>
      <trkpt lat="47.39579" lon="-3.01261">
        <ele>0.14</ele>
        <time>2016-08-24T12:15:22Z</time>
      </trkpt>
      <trkpt lat="47.39566" lon="-3.01296">
        <ele>-0.34</ele>
        <time>2016-08-24T12:15:41Z</time>
      </trkpt>
      <trkpt lat="47.39556" lon="-3.01321">
        <ele>-0.82</ele>
        <time>2016-08-24T12:15:58Z</time>
      </trkpt>
      <trkpt lat="47.39548" lon="-3.01342">
        <ele>-0.82</ele>
        <time>2016-08-24T12:16:13Z</time>
      </trkpt>
      <trkpt lat="47.39541" lon="-3.01352">
        <ele>-0.34</ele>
        <time>2016-08-24T12:16:27Z</time>
      </trkpt>
      <trkpt lat="47.39526" lon="-3.01386">
        <ele>0.14</ele>
        <time>2016-08-24T12:16:45Z</time>
      </trkpt>
      <trkpt lat="47.3952" lon="-3.01417">
        <ele>1.1</ele>
        <time>2016-08-24T12:17:05Z</time>
      </trkpt>
      <trkpt lat="47.39513" lon="-3.01455">
        <ele>1.1</ele>
        <time>2016-08-24T12:17:22Z</time>
      </trkpt>
      <trkpt lat="47.39505" lon="-3.01489">
        <ele>0.62</ele>
        <time>2016-08-24T12:17:41Z</time>
      </trkpt>
      <trkpt lat="47.39488" lon="-3.01535">
        <ele>0.62</ele>
        <time>2016-08-24T12:18:01Z</time>
      </trkpt>
      <trkpt lat="47.39479" lon="-3.01556">
        <ele>0.62</ele>
        <time>2016-08-24T12:18:17Z</time>
      </trkpt>
      <trkpt lat="47.39475" lon="-3.01562">
        <ele>0.14</ele>
        <time>2016-08-24T12:18:24Z</time>
      </trkpt>
      <trkpt lat="47.39457" lon="-3.01591">
        <ele>0.14</ele>
        <time>2016-08-24T12:18:42Z</time>
      </trkpt>
      <trkpt lat="47.3944" lon="-3.01628">
        <ele>0.14</ele>
        <time>2016-08-24T12:19:01Z</time>
      </trkpt>
      <trkpt lat="47.39423" lon="-3.01656">
        <ele>1.1</ele>
        <time>2016-08-24T12:19:17Z</time>
      </trkpt>
      <trkpt lat="47.39399" lon="-3.01687">
        <ele>2.54</ele>
        <time>2016-08-24T12:19:36Z</time>
      </trkpt>
      <trkpt lat="47.39374" lon="-3.01715">
        <ele>3.5</ele>
        <time>2016-08-24T12:19:54Z</time>
      </trkpt>
      <trkpt lat="47.39356" lon="-3.01745">
        <ele>2.54</ele>
        <time>2016-08-24T12:20:10Z</time>
      </trkpt>
      <trkpt lat="47.39351" lon="-3.01782">
        <ele>2.06</ele>
        <time>2016-08-24T12:20:28Z</time>
      </trkpt>
      <trkpt lat="47.3935" lon="-3.01813">
        <ele>1.58</ele>
        <time>2016-08-24T12:20:44Z</time>
      </trkpt>
      <trkpt lat="47.39342" lon="-3.01842">
        <ele>1.1</ele>
        <time>2016-08-24T12:21:01Z</time>
      </trkpt>
      <trkpt lat="47.39326" lon="-3.01876">
        <ele>0.62</ele>
        <time>2016-08-24T12:21:17Z</time>
      </trkpt>
      <trkpt lat="47.39302" lon="-3.01913">
        <ele>1.1</ele>
        <time>2016-08-24T12:21:34Z</time>
      </trkpt>
      <trkpt lat="47.39285" lon="-3.01943">
        <ele>1.1</ele>
        <time>2016-08-24T12:21:49Z</time>
      </trkpt>
      <trkpt lat="47.39264" lon="-3.01979">
        <ele>1.1</ele>
        <time>2016-08-24T12:22:05Z</time>
      </trkpt>
      <trkpt lat="47.39242" lon="-3.02026">
        <ele>0.62</ele>
        <time>2016-08-24T12:22:23Z</time>
      </trkpt>
      <trkpt lat="47.39216" lon="-3.02075">
        <ele>0.14</ele>
        <time>2016-08-24T12:22:40Z</time>
      </trkpt>
      <trkpt lat="47.39193" lon="-3.02117">
        <ele>0.14</ele>
        <time>2016-08-24T12:22:55Z</time>
      </trkpt>
      <trkpt lat="47.3918" lon="-3.02159">
        <ele>-0.34</ele>
        <time>2016-08-24T12:23:11Z</time>
      </trkpt>
      <trkpt lat="47.39163" lon="-3.02189">
        <ele>-0.34</ele>
        <time>2016-08-24T12:23:29Z</time>
      </trkpt>
      <trkpt lat="47.39149" lon="-3.02222">
        <ele>0.14</ele>
        <time>2016-08-24T12:23:42Z</time>
      </trkpt>
      <trkpt lat="47.39146" lon="-3.02231">
        <ele>0.14</ele>
        <time>2016-08-24T12:23:48Z</time>
      </trkpt>
      <trkpt lat="47.39127" lon="-3.02257">
        <ele>-0.34</ele>
        <time>2016-08-24T12:24:04Z</time>
      </trkpt>
      <trkpt lat="47.391" lon="-3.02295">
        <ele>-0.34</ele>
        <time>2016-08-24T12:24:20Z</time>
      </trkpt>
      <trkpt lat="47.39068" lon="-3.02311">
        <ele>0.14</ele>
        <time>2016-08-24T12:24:35Z</time>
      </trkpt>
      <trkpt lat="47.39036" lon="-3.02288">
        <ele>-0.34</ele>
        <time>2016-08-24T12:24:50Z</time>
      </trkpt>
      <trkpt lat="47.39004" lon="-3.02272">
        <ele>-0.34</ele>
        <time>2016-08-24T12:25:05Z</time>
      </trkpt>
      <trkpt lat="47.3897" lon="-3.02257">
        <ele>0.62</ele>
        <time>2016-08-24T12:25:20Z</time>
      </trkpt>
      <trkpt lat="47.38931" lon="-3.02238">
        <ele>0.14</ele>
        <time>2016-08-24T12:25:36Z</time>
      </trkpt>
      <trkpt lat="47.38898" lon="-3.02208">
        <ele>0.14</ele>
        <time>2016-08-24T12:25:52Z</time>
      </trkpt>
      <trkpt lat="47.38869" lon="-3.02174">
        <ele>0.14</ele>
        <time>2016-08-24T12:26:07Z</time>
      </trkpt>
      <trkpt lat="47.38836" lon="-3.02141">
        <ele>-0.34</ele>
        <time>2016-08-24T12:26:24Z</time>
      </trkpt>
      <trkpt lat="47.38809" lon="-3.02115">
        <ele>-0.82</ele>
        <time>2016-08-24T12:26:37Z</time>
      </trkpt>
      <trkpt lat="47.38782" lon="-3.02084">
        <ele>-0.34</ele>
        <time>2016-08-24T12:26:51Z</time>
      </trkpt>
      <trkpt lat="47.38756" lon="-3.02033">
        <ele>-0.82</ele>
        <time>2016-08-24T12:27:10Z</time>
      </trkpt>
      <trkpt lat="47.38734" lon="-3.01987">
        <ele>-1.3</ele>
        <time>2016-08-24T12:27:27Z</time>
      </trkpt>
      <trkpt lat="47.38714" lon="-3.01948">
        <ele>-0.82</ele>
        <time>2016-08-24T12:27:43Z</time>
      </trkpt>
      <trkpt lat="47.38693" lon="-3.01963">
        <ele>-0.34</ele>
        <time>2016-08-24T12:27:54Z</time>
      </trkpt>
      <trkpt lat="47.38671" lon="-3.02008">
        <ele>0.14</ele>
        <time>2016-08-24T12:28:11Z</time>
      </trkpt>
      <trkpt lat="47.38647" lon="-3.02054">
        <ele>1.1</ele>
        <time>2016-08-24T12:28:26Z</time>
      </trkpt>
      <trkpt lat="47.38617" lon="-3.02112">
        <ele>1.1</ele>
        <time>2016-08-24T12:28:45Z</time>
      </trkpt>
      <trkpt lat="47.3859" lon="-3.02162">
        <ele>1.1</ele>
        <time>2016-08-24T12:29:02Z</time>
      </trkpt>
      <trkpt lat="47.38559" lon="-3.02222">
        <ele>1.1</ele>
        <time>2016-08-24T12:29:22Z</time>
      </trkpt>
      <trkpt lat="47.38527" lon="-3.0228">
        <ele>0.62</ele>
        <time>2016-08-24T12:29:42Z</time>
      </trkpt>
      <trkpt lat="47.385" lon="-3.02329">
        <ele>1.58</ele>
        <time>2016-08-24T12:29:59Z</time>
      </trkpt>
      <trkpt lat="47.38473" lon="-3.02376">
        <ele>1.1</ele>
        <time>2016-08-24T12:30:15Z</time>
      </trkpt>
      <trkpt lat="47.38444" lon="-3.02423">
        <ele>1.58</ele>
        <time>2016-08-24T12:30:31Z</time>
      </trkpt>
      <trkpt lat="47.38414" lon="-3.02474">
        <ele>1.1</ele>
        <time>2016-08-24T12:30:48Z</time>
      </trkpt>
      <trkpt lat="47.38385" lon="-3.02522">
        <ele>1.1</ele>
        <time>2016-08-24T12:31:04Z</time>
      </trkpt>
      <trkpt lat="47.3835" lon="-3.02571">
        <ele>1.1</ele>
        <time>2016-08-24T12:31:21Z</time>
      </trkpt>
      <trkpt lat="47.38314" lon="-3.02628">
        <ele>1.58</ele>
        <time>2016-08-24T12:31:40Z</time>
      </trkpt>
      <trkpt lat="47.38284" lon="-3.0268">
        <ele>2.06</ele>
        <time>2016-08-24T12:31:57Z</time>
      </trkpt>
      <trkpt lat="47.38247" lon="-3.02727">
        <ele>1.1</ele>
        <time>2016-08-24T12:32:14Z</time>
      </trkpt>
      <trkpt lat="47.38213" lon="-3.02773">
        <ele>1.58</ele>
        <time>2016-08-24T12:32:30Z</time>
      </trkpt>
      <trkpt lat="47.3819" lon="-3.02808">
        <ele>1.1</ele>
        <time>2016-08-24T12:32:42Z</time>
      </trkpt>
      <trkpt lat="47.38155" lon="-3.02859">
        <ele>0.14</ele>
        <time>2016-08-24T12:32:59Z</time>
      </trkpt>
      <trkpt lat="47.38123" lon="-3.02906">
        <ele>0.62</ele>
        <time>2016-08-24T12:33:15Z</time>
      </trkpt>
      <trkpt lat="47.38093" lon="-3.02957">
        <ele>0.62</ele>
        <time>2016-08-24T12:33:31Z</time>
      </trkpt>
      <trkpt lat="47.38061" lon="-3.03006">
        <ele>1.1</ele>
        <time>2016-08-24T12:33:48Z</time>
      </trkpt>
      <trkpt lat="47.38032" lon="-3.03056">
        <ele>0.14</ele>
        <time>2016-08-24T12:34:04Z</time>
      </trkpt>
      <trkpt lat="47.37994" lon="-3.03114">
        <ele>0.14</ele>
        <time>2016-08-24T12:34:23Z</time>
      </trkpt>
      <trkpt lat="47.37962" lon="-3.03166">
        <ele>-0.34</ele>
        <time>2016-08-24T12:34:40Z</time>
      </trkpt>
      <trkpt lat="47.37933" lon="-3.03212">
        <ele>0.14</ele>
        <time>2016-08-24T12:34:55Z</time>
      </trkpt>
      <trkpt lat="47.37906" lon="-3.03251">
        <ele>0.14</ele>
        <time>2016-08-24T12:35:08Z</time>
      </trkpt>
      <trkpt lat="47.37872" lon="-3.03308">
        <ele>0.14</ele>
        <time>2016-08-24T12:35:26Z</time>
      </trkpt>
      <trkpt lat="47.37842" lon="-3.03354">
        <ele>0.62</ele>
        <time>2016-08-24T12:35:41Z</time>
      </trkpt>
      <trkpt lat="47.37808" lon="-3.03412">
        <ele>0.14</ele>
        <time>2016-08-24T12:35:59Z</time>
      </trkpt>
      <trkpt lat="47.37778" lon="-3.03458">
        <ele>0.14</ele>
        <time>2016-08-24T12:36:14Z</time>
      </trkpt>
      <trkpt lat="47.37746" lon="-3.03512">
        <ele>0.62</ele>
        <time>2016-08-24T12:36:31Z</time>
      </trkpt>
      <trkpt lat="47.37713" lon="-3.03561">
        <ele>0.14</ele>
        <time>2016-08-24T12:36:47Z</time>
      </trkpt>
      <trkpt lat="47.37679" lon="-3.03608">
        <ele>0.14</ele>
        <time>2016-08-24T12:37:03Z</time>
      </trkpt>
      <trkpt lat="47.37644" lon="-3.03664">
        <ele>0.14</ele>
        <time>2016-08-24T12:37:21Z</time>
      </trkpt>
      <trkpt lat="47.37615" lon="-3.03709">
        <ele>0.14</ele>
        <time>2016-08-24T12:37:36Z</time>
      </trkpt>
      <trkpt lat="47.37586" lon="-3.03755">
        <ele>0.62</ele>
        <time>2016-08-24T12:37:51Z</time>
      </trkpt>
      <trkpt lat="47.37548" lon="-3.03814">
        <ele>1.1</ele>
        <time>2016-08-24T12:38:11Z</time>
      </trkpt>
      <trkpt lat="47.37516" lon="-3.03864">
        <ele>1.1</ele>
        <time>2016-08-24T12:38:28Z</time>
      </trkpt>
      <trkpt lat="47.37486" lon="-3.03918">
        <ele>1.1</ele>
        <time>2016-08-24T12:38:45Z</time>
      </trkpt>
      <trkpt lat="47.37457" lon="-3.03967">
        <ele>1.1</ele>
        <time>2016-08-24T12:39:01Z</time>
      </trkpt>
      <trkpt lat="47.37428" lon="-3.04014">
        <ele>1.58</ele>
        <time>2016-08-24T12:39:17Z</time>
      </trkpt>
      <trkpt lat="47.37402" lon="-3.0406">
        <ele>1.1</ele>
        <time>2016-08-24T12:39:32Z</time>
      </trkpt>
      <trkpt lat="47.37379" lon="-3.04102">
        <ele>1.1</ele>
        <time>2016-08-24T12:39:46Z</time>
      </trkpt>
      <trkpt lat="47.37352" lon="-3.04154">
        <ele>1.1</ele>
        <time>2016-08-24T12:40:03Z</time>
      </trkpt>
      <trkpt lat="47.37329" lon="-3.04199">
        <ele>1.58</ele>
        <time>2016-08-24T12:40:18Z</time>
      </trkpt>
      <trkpt lat="47.3731" lon="-3.04239">
        <ele>1.1</ele>
        <time>2016-08-24T12:40:31Z</time>
      </trkpt>
      <trkpt lat="47.37288" lon="-3.0429">
        <ele>1.1</ele>
        <time>2016-08-24T12:40:47Z</time>
      </trkpt>
      <trkpt lat="47.37264" lon="-3.04344">
        <ele>1.58</ele>
        <time>2016-08-24T12:41:05Z</time>
      </trkpt>
      <trkpt lat="47.37243" lon="-3.04397">
        <ele>1.58</ele>
        <time>2016-08-24T12:41:22Z</time>
      </trkpt>
      <trkpt lat="47.3722" lon="-3.0444">
        <ele>1.58</ele>
        <time>2016-08-24T12:41:38Z</time>
      </trkpt>
      <trkpt lat="47.37199" lon="-3.04484">
        <ele>2.06</ele>
        <time>2016-08-24T12:41:53Z</time>
      </trkpt>
      <trkpt lat="47.37179" lon="-3.04525">
        <ele>2.06</ele>
        <time>2016-08-24T12:42:07Z</time>
      </trkpt>
      <trkpt lat="47.37147" lon="-3.04573">
        <ele>2.54</ele>
        <time>2016-08-24T12:42:24Z</time>
      </trkpt>
      <trkpt lat="47.37119" lon="-3.04623">
        <ele>2.06</ele>
        <time>2016-08-24T12:42:40Z</time>
      </trkpt>
      <trkpt lat="47.37095" lon="-3.04668">
        <ele>2.54</ele>
        <time>2016-08-24T12:42:54Z</time>
      </trkpt>
      <trkpt lat="47.37074" lon="-3.04707">
        <ele>2.06</ele>
        <time>2016-08-24T12:43:07Z</time>
      </trkpt>
      <trkpt lat="47.37045" lon="-3.04767">
        <ele>0.62</ele>
        <time>2016-08-24T12:43:26Z</time>
      </trkpt>
      <trkpt lat="47.37018" lon="-3.04818">
        <ele>0.62</ele>
        <time>2016-08-24T12:43:43Z</time>
      </trkpt>
      <trkpt lat="47.36996" lon="-3.04862">
        <ele>1.1</ele>
        <time>2016-08-24T12:43:58Z</time>
      </trkpt>
      <trkpt lat="47.36972" lon="-3.04916">
        <ele>1.1</ele>
        <time>2016-08-24T12:44:15Z</time>
      </trkpt>
      <trkpt lat="47.36952" lon="-3.04965">
        <ele>0.62</ele>
        <time>2016-08-24T12:44:30Z</time>
      </trkpt>
      <trkpt lat="47.36932" lon="-3.05014">
        <ele>0.62</ele>
        <time>2016-08-24T12:44:45Z</time>
      </trkpt>
      <trkpt lat="47.36911" lon="-3.05059">
        <ele>1.1</ele>
        <time>2016-08-24T12:44:59Z</time>
      </trkpt>
      <trkpt lat="47.36891" lon="-3.05112">
        <ele>0.62</ele>
        <time>2016-08-24T12:45:15Z</time>
      </trkpt>
      <trkpt lat="47.36868" lon="-3.0517">
        <ele>0.62</ele>
        <time>2016-08-24T12:45:33Z</time>
      </trkpt>
      <trkpt lat="47.36849" lon="-3.05218">
        <ele>0.62</ele>
        <time>2016-08-24T12:45:48Z</time>
      </trkpt>
      <trkpt lat="47.36826" lon="-3.05277">
        <ele>1.1</ele>
        <time>2016-08-24T12:46:06Z</time>
      </trkpt>
      <trkpt lat="47.3681" lon="-3.05318">
        <ele>1.58</ele>
        <time>2016-08-24T12:46:19Z</time>
      </trkpt>
      <trkpt lat="47.36792" lon="-3.05367">
        <ele>2.06</ele>
        <time>2016-08-24T12:46:34Z</time>
      </trkpt>
      <trkpt lat="47.36773" lon="-3.05414">
        <ele>2.06</ele>
        <time>2016-08-24T12:46:49Z</time>
      </trkpt>
      <trkpt lat="47.36752" lon="-3.05459">
        <ele>1.58</ele>
        <time>2016-08-24T12:47:04Z</time>
      </trkpt>
      <trkpt lat="47.36731" lon="-3.05508">
        <ele>1.58</ele>
        <time>2016-08-24T12:47:20Z</time>
      </trkpt>
      <trkpt lat="47.36714" lon="-3.05551">
        <ele>1.58</ele>
        <time>2016-08-24T12:47:34Z</time>
      </trkpt>
      <trkpt lat="47.36688" lon="-3.05611">
        <ele>1.58</ele>
        <time>2016-08-24T12:47:53Z</time>
      </trkpt>
      <trkpt lat="47.36664" lon="-3.05671">
        <ele>1.1</ele>
        <time>2016-08-24T12:48:11Z</time>
      </trkpt>
      <trkpt lat="47.36645" lon="-3.05721">
        <ele>1.1</ele>
        <time>2016-08-24T12:48:26Z</time>
      </trkpt>
      <trkpt lat="47.3662" lon="-3.05779">
        <ele>1.58</ele>
        <time>2016-08-24T12:48:44Z</time>
      </trkpt>
      <trkpt lat="47.36601" lon="-3.05819">
        <ele>1.1</ele>
        <time>2016-08-24T12:48:57Z</time>
      </trkpt>
      <trkpt lat="47.36571" lon="-3.05872">
        <ele>1.1</ele>
        <time>2016-08-24T12:49:15Z</time>
      </trkpt>
      <trkpt lat="47.36544" lon="-3.05919">
        <ele>1.1</ele>
        <time>2016-08-24T12:49:31Z</time>
      </trkpt>
      <trkpt lat="47.36519" lon="-3.05968">
        <ele>1.58</ele>
        <time>2016-08-24T12:49:47Z</time>
      </trkpt>
      <trkpt lat="47.36494" lon="-3.06021">
        <ele>1.58</ele>
        <time>2016-08-24T12:50:03Z</time>
      </trkpt>
      <trkpt lat="47.36473" lon="-3.06069">
        <ele>1.58</ele>
        <time>2016-08-24T12:50:18Z</time>
      </trkpt>
      <trkpt lat="47.36446" lon="-3.06123">
        <ele>1.58</ele>
        <time>2016-08-24T12:50:35Z</time>
      </trkpt>
      <trkpt lat="47.36425" lon="-3.06172">
        <ele>2.06</ele>
        <time>2016-08-24T12:50:50Z</time>
      </trkpt>
      <trkpt lat="47.364" lon="-3.06231">
        <ele>2.54</ele>
        <time>2016-08-24T12:51:08Z</time>
      </trkpt>
      <trkpt lat="47.36381" lon="-3.06275">
        <ele>1.1</ele>
        <time>2016-08-24T12:51:22Z</time>
      </trkpt>
      <trkpt lat="47.36357" lon="-3.06322">
        <ele>-0.34</ele>
        <time>2016-08-24T12:51:37Z</time>
      </trkpt>
      <trkpt lat="47.36338" lon="-3.06376">
        <ele>-0.34</ele>
        <time>2016-08-24T12:51:53Z</time>
      </trkpt>
      <trkpt lat="47.36318" lon="-3.06431">
        <ele>0.14</ele>
        <time>2016-08-24T12:52:10Z</time>
      </trkpt>
      <trkpt lat="47.36304" lon="-3.06478">
        <ele>0.14</ele>
        <time>2016-08-24T12:52:24Z</time>
      </trkpt>
      <trkpt lat="47.36287" lon="-3.06534">
        <ele>0.14</ele>
        <time>2016-08-24T12:52:42Z</time>
      </trkpt>
      <trkpt lat="47.3627" lon="-3.06587">
        <ele>0.14</ele>
        <time>2016-08-24T12:52:59Z</time>
      </trkpt>
      <trkpt lat="47.36258" lon="-3.06627">
        <ele>0.14</ele>
        <time>2016-08-24T12:53:12Z</time>
      </trkpt>
      <trkpt lat="47.36244" lon="-3.06674">
        <ele>-0.34</ele>
        <time>2016-08-24T12:53:27Z</time>
      </trkpt>
      <trkpt lat="47.36226" lon="-3.06723">
        <ele>0.14</ele>
        <time>2016-08-24T12:53:43Z</time>
      </trkpt>
      <trkpt lat="47.36207" lon="-3.06775">
        <ele>0.14</ele>
        <time>2016-08-24T12:53:59Z</time>
      </trkpt>
      <trkpt lat="47.36191" lon="-3.0682">
        <ele>0.62</ele>
        <time>2016-08-24T12:54:13Z</time>
      </trkpt>
      <trkpt lat="47.36173" lon="-3.06874">
        <ele>0.14</ele>
        <time>2016-08-24T12:54:30Z</time>
      </trkpt>
      <trkpt lat="47.36153" lon="-3.06931">
        <ele>-0.34</ele>
        <time>2016-08-24T12:54:48Z</time>
      </trkpt>
      <trkpt lat="47.36135" lon="-3.0699">
        <ele>-0.34</ele>
        <time>2016-08-24T12:55:07Z</time>
      </trkpt>
      <trkpt lat="47.36118" lon="-3.07039">
        <ele>0.14</ele>
        <time>2016-08-24T12:55:23Z</time>
      </trkpt>
      <trkpt lat="47.361" lon="-3.07091">
        <ele>0.14</ele>
        <time>2016-08-24T12:55:40Z</time>
      </trkpt>
      <trkpt lat="47.36083" lon="-3.07141">
        <ele>0.14</ele>
        <time>2016-08-24T12:55:56Z</time>
      </trkpt>
      <trkpt lat="47.36065" lon="-3.07197">
        <ele>-0.34</ele>
        <time>2016-08-24T12:56:14Z</time>
      </trkpt>
      <trkpt lat="47.36047" lon="-3.07245">
        <ele>0.14</ele>
        <time>2016-08-24T12:56:30Z</time>
      </trkpt>
      <trkpt lat="47.3603" lon="-3.07293">
        <ele>0.62</ele>
        <time>2016-08-24T12:56:45Z</time>
      </trkpt>
      <trkpt lat="47.36008" lon="-3.0735">
        <ele>1.1</ele>
        <time>2016-08-24T12:57:03Z</time>
      </trkpt>
      <trkpt lat="47.35991" lon="-3.07394">
        <ele>1.1</ele>
        <time>2016-08-24T12:57:17Z</time>
      </trkpt>
      <trkpt lat="47.35973" lon="-3.07437">
        <ele>1.1</ele>
        <time>2016-08-24T12:57:31Z</time>
      </trkpt>
      <trkpt lat="47.35951" lon="-3.07496">
        <ele>0.62</ele>
        <time>2016-08-24T12:57:49Z</time>
      </trkpt>
      <trkpt lat="47.35933" lon="-3.07552">
        <ele>0.14</ele>
        <time>2016-08-24T12:58:06Z</time>
      </trkpt>
      <trkpt lat="47.35914" lon="-3.07603">
        <ele>0.14</ele>
        <time>2016-08-24T12:58:22Z</time>
      </trkpt>
      <trkpt lat="47.35893" lon="-3.07667">
        <ele>0.62</ele>
        <time>2016-08-24T12:58:41Z</time>
      </trkpt>
      <trkpt lat="47.35877" lon="-3.07722">
        <ele>0.14</ele>
        <time>2016-08-24T12:58:58Z</time>
      </trkpt>
      <trkpt lat="47.35864" lon="-3.07767">
        <ele>-0.34</ele>
        <time>2016-08-24T12:59:12Z</time>
      </trkpt>
      <trkpt lat="47.35853" lon="-3.07826">
        <ele>-0.34</ele>
        <time>2016-08-24T12:59:30Z</time>
      </trkpt>
      <trkpt lat="47.35842" lon="-3.07877">
        <ele>-0.34</ele>
        <time>2016-08-24T12:59:45Z</time>
      </trkpt>
      <trkpt lat="47.3583" lon="-3.07925">
        <ele>-0.34</ele>
        <time>2016-08-24T12:59:59Z</time>
      </trkpt>
      <trkpt lat="47.35814" lon="-3.07984">
        <ele>-0.34</ele>
        <time>2016-08-24T13:00:15Z</time>
      </trkpt>
      <trkpt lat="47.35801" lon="-3.08032">
        <ele>0.14</ele>
        <time>2016-08-24T13:00:28Z</time>
      </trkpt>
      <trkpt lat="47.35785" lon="-3.08097">
        <ele>0.14</ele>
        <time>2016-08-24T13:00:46Z</time>
      </trkpt>
      <trkpt lat="47.3577" lon="-3.0815">
        <ele>0.14</ele>
        <time>2016-08-24T13:01:01Z</time>
      </trkpt>
      <trkpt lat="47.35754" lon="-3.08197">
        <ele>0.14</ele>
        <time>2016-08-24T13:01:14Z</time>
      </trkpt>
      <trkpt lat="47.35737" lon="-3.08244">
        <ele>0.62</ele>
        <time>2016-08-24T13:01:27Z</time>
      </trkpt>
      <trkpt lat="47.35719" lon="-3.08288">
        <ele>0.14</ele>
        <time>2016-08-24T13:01:40Z</time>
      </trkpt>
      <trkpt lat="47.357" lon="-3.08341">
        <ele>0.14</ele>
        <time>2016-08-24T13:01:55Z</time>
      </trkpt>
      <trkpt lat="47.35684" lon="-3.08394">
        <ele>0.14</ele>
        <time>2016-08-24T13:02:10Z</time>
      </trkpt>
      <trkpt lat="47.35669" lon="-3.08455">
        <ele>0.62</ele>
        <time>2016-08-24T13:02:27Z</time>
      </trkpt>
      <trkpt lat="47.35654" lon="-3.08505">
        <ele>0.62</ele>
        <time>2016-08-24T13:02:41Z</time>
      </trkpt>
      <trkpt lat="47.35637" lon="-3.08559">
        <ele>-0.34</ele>
        <time>2016-08-24T13:02:56Z</time>
      </trkpt>
      <trkpt lat="47.35621" lon="-3.08609">
        <ele>0.62</ele>
        <time>2016-08-24T13:03:10Z</time>
      </trkpt>
      <trkpt lat="47.3561" lon="-3.08661">
        <ele>0.14</ele>
        <time>2016-08-24T13:03:24Z</time>
      </trkpt>
      <trkpt lat="47.35599" lon="-3.08718">
        <ele>0.62</ele>
        <time>2016-08-24T13:03:40Z</time>
      </trkpt>
      <trkpt lat="47.35584" lon="-3.0878">
        <ele>0.62</ele>
        <time>2016-08-24T13:03:58Z</time>
      </trkpt>
      <trkpt lat="47.35571" lon="-3.08838">
        <ele>0.14</ele>
        <time>2016-08-24T13:04:14Z</time>
      </trkpt>
      <trkpt lat="47.3556" lon="-3.08898">
        <ele>0.14</ele>
        <time>2016-08-24T13:04:31Z</time>
      </trkpt>
      <trkpt lat="47.35551" lon="-3.08947">
        <ele>1.1</ele>
        <time>2016-08-24T13:04:45Z</time>
      </trkpt>
      <trkpt lat="47.35532" lon="-3.08999">
        <ele>1.1</ele>
        <time>2016-08-24T13:05:01Z</time>
      </trkpt>
      <trkpt lat="47.35518" lon="-3.09054">
        <ele>0.62</ele>
        <time>2016-08-24T13:05:17Z</time>
      </trkpt>
      <trkpt lat="47.35506" lon="-3.09109">
        <ele>-0.34</ele>
        <time>2016-08-24T13:05:33Z</time>
      </trkpt>
      <trkpt lat="47.35485" lon="-3.09176">
        <ele>0.14</ele>
        <time>2016-08-24T13:05:52Z</time>
      </trkpt>
      <trkpt lat="47.3547" lon="-3.09226">
        <ele>0.14</ele>
        <time>2016-08-24T13:06:06Z</time>
      </trkpt>
      <trkpt lat="47.35453" lon="-3.09277">
        <ele>0.14</ele>
        <time>2016-08-24T13:06:21Z</time>
      </trkpt>
      <trkpt lat="47.3544" lon="-3.09333">
        <ele>0.14</ele>
        <time>2016-08-24T13:06:37Z</time>
      </trkpt>
      <trkpt lat="47.35428" lon="-3.09385">
        <ele>0.14</ele>
        <time>2016-08-24T13:06:52Z</time>
      </trkpt>
      <trkpt lat="47.35415" lon="-3.09445">
        <ele>0.14</ele>
        <time>2016-08-24T13:07:09Z</time>
      </trkpt>
      <trkpt lat="47.35405" lon="-3.09494">
        <ele>0.62</ele>
        <time>2016-08-24T13:07:23Z</time>
      </trkpt>
      <trkpt lat="47.35386" lon="-3.09542">
        <ele>0.62</ele>
        <time>2016-08-24T13:07:38Z</time>
      </trkpt>
      <trkpt lat="47.35368" lon="-3.09589">
        <ele>0.62</ele>
        <time>2016-08-24T13:07:53Z</time>
      </trkpt>
      <trkpt lat="47.35355" lon="-3.09657">
        <ele>-0.34</ele>
        <time>2016-08-24T13:08:13Z</time>
      </trkpt>
      <trkpt lat="47.35347" lon="-3.09723">
        <ele>-0.34</ele>
        <time>2016-08-24T13:08:33Z</time>
      </trkpt>
      <trkpt lat="47.3534" lon="-3.09771">
        <ele>-1.79</ele>
        <time>2016-08-24T13:08:49Z</time>
      </trkpt>
      <trkpt lat="47.35322" lon="-3.09832">
        <ele>-1.3</ele>
        <time>2016-08-24T13:09:09Z</time>
      </trkpt>
      <trkpt lat="47.35307" lon="-3.09891">
        <ele>-2.27</ele>
        <time>2016-08-24T13:09:28Z</time>
      </trkpt>
      <trkpt lat="47.35295" lon="-3.0994">
        <ele>-2.75</ele>
        <time>2016-08-24T13:09:44Z</time>
      </trkpt>
      <trkpt lat="47.35286" lon="-3.09997">
        <ele>-2.75</ele>
        <time>2016-08-24T13:10:02Z</time>
      </trkpt>
      <trkpt lat="47.35277" lon="-3.10057">
        <ele>-2.75</ele>
        <time>2016-08-24T13:10:21Z</time>
      </trkpt>
      <trkpt lat="47.35271" lon="-3.10109">
        <ele>-3.23</ele>
        <time>2016-08-24T13:10:38Z</time>
      </trkpt>
      <trkpt lat="47.35261" lon="-3.10157">
        <ele>-2.27</ele>
        <time>2016-08-24T13:10:54Z</time>
      </trkpt>
      <trkpt lat="47.35255" lon="-3.1022">
        <ele>-2.27</ele>
        <time>2016-08-24T13:11:14Z</time>
      </trkpt>
      <trkpt lat="47.35246" lon="-3.10285">
        <ele>-2.27</ele>
        <time>2016-08-24T13:11:35Z</time>
      </trkpt>
      <trkpt lat="47.35238" lon="-3.10337">
        <ele>-1.79</ele>
        <time>2016-08-24T13:11:52Z</time>
      </trkpt>
      <trkpt lat="47.35229" lon="-3.10396">
        <ele>-1.3</ele>
        <time>2016-08-24T13:12:11Z</time>
      </trkpt>
      <trkpt lat="47.35219" lon="-3.10446">
        <ele>-2.27</ele>
        <time>2016-08-24T13:12:27Z</time>
      </trkpt>
      <trkpt lat="47.35207" lon="-3.10499">
        <ele>-2.27</ele>
        <time>2016-08-24T13:12:45Z</time>
      </trkpt>
      <trkpt lat="47.3519" lon="-3.10559">
        <ele>-1.79</ele>
        <time>2016-08-24T13:13:07Z</time>
      </trkpt>
      <trkpt lat="47.35174" lon="-3.10598">
        <ele>-0.82</ele>
        <time>2016-08-24T13:13:24Z</time>
      </trkpt>
      <trkpt lat="47.3516" lon="-3.10623">
        <ele>-0.34</ele>
        <time>2016-08-24T13:13:38Z</time>
      </trkpt>
      <trkpt lat="47.35147" lon="-3.10643">
        <ele>-0.34</ele>
        <time>2016-08-24T13:13:51Z</time>
      </trkpt>
      <trkpt lat="47.35131" lon="-3.10662">
        <ele>0.14</ele>
        <time>2016-08-24T13:14:06Z</time>
      </trkpt>
      <trkpt lat="47.35113" lon="-3.10676">
        <ele>0.14</ele>
        <time>2016-08-24T13:14:24Z</time>
      </trkpt>
      <trkpt lat="47.35094" lon="-3.10688">
        <ele>0.14</ele>
        <time>2016-08-24T13:14:43Z</time>
      </trkpt>
      <trkpt lat="47.35082" lon="-3.10716">
        <ele>-0.34</ele>
        <time>2016-08-24T13:15:02Z</time>
      </trkpt>
      <trkpt lat="47.35073" lon="-3.10745">
        <ele>-1.3</ele>
        <time>2016-08-24T13:15:18Z</time>
      </trkpt>
      <trkpt lat="47.35069" lon="-3.1079">
        <ele>-1.79</ele>
        <time>2016-08-24T13:15:37Z</time>
      </trkpt>
      <trkpt lat="47.35069" lon="-3.10831">
        <ele>-2.27</ele>
        <time>2016-08-24T13:15:55Z</time>
      </trkpt>
      <trkpt lat="47.35068" lon="-3.10879">
        <ele>-1.79</ele>
        <time>2016-08-24T13:16:16Z</time>
      </trkpt>
      <trkpt lat="47.35067" lon="-3.10918">
        <ele>-2.27</ele>
        <time>2016-08-24T13:16:34Z</time>
      </trkpt>
      <trkpt lat="47.35064" lon="-3.10959">
        <ele>-2.27</ele>
        <time>2016-08-24T13:16:52Z</time>
      </trkpt>
      <trkpt lat="47.35064" lon="-3.11009">
        <ele>-2.27</ele>
        <time>2016-08-24T13:17:13Z</time>
      </trkpt>
      <trkpt lat="47.35061" lon="-3.11062">
        <ele>-2.27</ele>
        <time>2016-08-24T13:17:36Z</time>
      </trkpt>
      <trkpt lat="47.35056" lon="-3.11115">
        <ele>-2.27</ele>
        <time>2016-08-24T13:17:58Z</time>
      </trkpt>
      <trkpt lat="47.3505" lon="-3.11166">
        <ele>-2.27</ele>
        <time>2016-08-24T13:18:18Z</time>
      </trkpt>
      <trkpt lat="47.35047" lon="-3.11211">
        <ele>-1.79</ele>
        <time>2016-08-24T13:18:37Z</time>
      </trkpt>
      <trkpt lat="47.35046" lon="-3.11248">
        <ele>-1.79</ele>
        <time>2016-08-24T13:18:55Z</time>
      </trkpt>
      <trkpt lat="47.35041" lon="-3.11287">
        <ele>-1.3</ele>
        <time>2016-08-24T13:19:13Z</time>
      </trkpt>
      <trkpt lat="47.35036" lon="-3.1134">
        <ele>-1.3</ele>
        <time>2016-08-24T13:19:35Z</time>
      </trkpt>
      <trkpt lat="47.3503" lon="-3.1139">
        <ele>-1.79</ele>
        <time>2016-08-24T13:19:57Z</time>
      </trkpt>
      <trkpt lat="47.35024" lon="-3.11436">
        <ele>-1.79</ele>
        <time>2016-08-24T13:20:16Z</time>
      </trkpt>
      <trkpt lat="47.35019" lon="-3.11487">
        <ele>-2.27</ele>
        <time>2016-08-24T13:20:37Z</time>
      </trkpt>
      <trkpt lat="47.35012" lon="-3.11531">
        <ele>-1.79</ele>
        <time>2016-08-24T13:20:54Z</time>
      </trkpt>
      <trkpt lat="47.35006" lon="-3.11583">
        <ele>-1.79</ele>
        <time>2016-08-24T13:21:14Z</time>
      </trkpt>
      <trkpt lat="47.35001" lon="-3.11639">
        <ele>-1.79</ele>
        <time>2016-08-24T13:21:37Z</time>
      </trkpt>
      <trkpt lat="47.34994" lon="-3.11678">
        <ele>-2.27</ele>
        <time>2016-08-24T13:21:52Z</time>
      </trkpt>
      <trkpt lat="47.34978" lon="-3.11728">
        <ele>-2.27</ele>
        <time>2016-08-24T13:22:11Z</time>
      </trkpt>
      <trkpt lat="47.34967" lon="-3.1178">
        <ele>-2.27</ele>
        <time>2016-08-24T13:22:30Z</time>
      </trkpt>
      <trkpt lat="47.3496" lon="-3.11836">
        <ele>-1.79</ele>
        <time>2016-08-24T13:22:50Z</time>
      </trkpt>
      <trkpt lat="47.34953" lon="-3.1189">
        <ele>-0.82</ele>
        <time>2016-08-24T13:23:10Z</time>
      </trkpt>
      <trkpt lat="47.34948" lon="-3.11947">
        <ele>-0.34</ele>
        <time>2016-08-24T13:23:31Z</time>
      </trkpt>
      <trkpt lat="47.34945" lon="-3.11993">
        <ele>-0.82</ele>
        <time>2016-08-24T13:23:48Z</time>
      </trkpt>
      <trkpt lat="47.3494" lon="-3.12058">
        <ele>-0.82</ele>
        <time>2016-08-24T13:24:12Z</time>
      </trkpt>
      <trkpt lat="47.34935" lon="-3.1211">
        <ele>-0.34</ele>
        <time>2016-08-24T13:24:31Z</time>
      </trkpt>
      <trkpt lat="47.34931" lon="-3.12167">
        <ele>-0.82</ele>
        <time>2016-08-24T13:24:52Z</time>
      </trkpt>
      <trkpt lat="47.34928" lon="-3.12217">
        <ele>-0.82</ele>
        <time>2016-08-24T13:25:10Z</time>
      </trkpt>
      <trkpt lat="47.34923" lon="-3.12267">
        <ele>-0.82</ele>
        <time>2016-08-24T13:25:28Z</time>
      </trkpt>
      <trkpt lat="47.34914" lon="-3.12333">
        <ele>-0.82</ele>
        <time>2016-08-24T13:25:51Z</time>
      </trkpt>
      <trkpt lat="47.34908" lon="-3.12385">
        <ele>-0.82</ele>
        <time>2016-08-24T13:26:09Z</time>
      </trkpt>
      <trkpt lat="47.349" lon="-3.12448">
        <ele>-0.82</ele>
        <time>2016-08-24T13:26:31Z</time>
      </trkpt>
      <trkpt lat="47.34893" lon="-3.12501">
        <ele>-0.82</ele>
        <time>2016-08-24T13:26:49Z</time>
      </trkpt>
      <trkpt lat="47.34888" lon="-3.12564">
        <ele>-0.82</ele>
        <time>2016-08-24T13:27:10Z</time>
      </trkpt>
      <trkpt lat="47.34883" lon="-3.1262">
        <ele>-0.82</ele>
        <time>2016-08-24T13:27:28Z</time>
      </trkpt>
      <trkpt lat="47.34875" lon="-3.12677">
        <ele>-0.82</ele>
        <time>2016-08-24T13:27:46Z</time>
      </trkpt>
      <trkpt lat="47.34865" lon="-3.12732">
        <ele>-0.82</ele>
        <time>2016-08-24T13:28:03Z</time>
      </trkpt>
      <trkpt lat="47.34857" lon="-3.12803">
        <ele>-0.82</ele>
        <time>2016-08-24T13:28:24Z</time>
      </trkpt>
      <trkpt lat="47.34848" lon="-3.12868">
        <ele>-0.82</ele>
        <time>2016-08-24T13:28:43Z</time>
      </trkpt>
      <trkpt lat="47.34842" lon="-3.12938">
        <ele>-0.34</ele>
        <time>2016-08-24T13:29:04Z</time>
      </trkpt>
      <trkpt lat="47.34838" lon="-3.12999">
        <ele>-0.82</ele>
        <time>2016-08-24T13:29:23Z</time>
      </trkpt>
      <trkpt lat="47.34828" lon="-3.1308">
        <ele>-0.82</ele>
        <time>2016-08-24T13:29:47Z</time>
      </trkpt>
      <trkpt lat="47.34818" lon="-3.1316">
        <ele>-0.82</ele>
        <time>2016-08-24T13:30:10Z</time>
      </trkpt>
      <trkpt lat="47.34812" lon="-3.13218">
        <ele>-0.82</ele>
        <time>2016-08-24T13:30:27Z</time>
      </trkpt>
      <trkpt lat="47.34809" lon="-3.13273">
        <ele>-0.34</ele>
        <time>2016-08-24T13:30:43Z</time>
      </trkpt>
      <trkpt lat="47.34804" lon="-3.13354">
        <ele>-0.34</ele>
        <time>2016-08-24T13:31:06Z</time>
      </trkpt>
      <trkpt lat="47.34801" lon="-3.13412">
        <ele>-0.82</ele>
        <time>2016-08-24T13:31:23Z</time>
      </trkpt>
      <trkpt lat="47.34797" lon="-3.13478">
        <ele>-0.34</ele>
        <time>2016-08-24T13:31:42Z</time>
      </trkpt>
      <trkpt lat="47.34792" lon="-3.13551">
        <ele>-0.82</ele>
        <time>2016-08-24T13:32:02Z</time>
      </trkpt>
      <trkpt lat="47.34787" lon="-3.13624">
        <ele>-0.82</ele>
        <time>2016-08-24T13:32:22Z</time>
      </trkpt>
      <trkpt lat="47.34781" lon="-3.137">
        <ele>-0.34</ele>
        <time>2016-08-24T13:32:43Z</time>
      </trkpt>
      <trkpt lat="47.34774" lon="-3.13764">
        <ele>-0.34</ele>
        <time>2016-08-24T13:33:01Z</time>
      </trkpt>
      <trkpt lat="47.34765" lon="-3.13853">
        <ele>-0.82</ele>
        <time>2016-08-24T13:33:26Z</time>
      </trkpt>
      <trkpt lat="47.34763" lon="-3.13918">
        <ele>-0.82</ele>
        <time>2016-08-24T13:33:43Z</time>
      </trkpt>
      <trkpt lat="47.34757" lon="-3.13987">
        <ele>-0.82</ele>
        <time>2016-08-24T13:34:01Z</time>
      </trkpt>
      <trkpt lat="47.34751" lon="-3.14059">
        <ele>-0.34</ele>
        <time>2016-08-24T13:34:21Z</time>
      </trkpt>
      <trkpt lat="47.34743" lon="-3.1413">
        <ele>-0.34</ele>
        <time>2016-08-24T13:34:42Z</time>
      </trkpt>
      <trkpt lat="47.34735" lon="-3.14199">
        <ele>-0.82</ele>
        <time>2016-08-24T13:35:03Z</time>
      </trkpt>
      <trkpt lat="47.3473" lon="-3.14255">
        <ele>-0.82</ele>
        <time>2016-08-24T13:35:19Z</time>
      </trkpt>
      <trkpt lat="47.34721" lon="-3.14326">
        <ele>-0.82</ele>
        <time>2016-08-24T13:35:40Z</time>
      </trkpt>
      <trkpt lat="47.34703" lon="-3.1439">
        <ele>-0.82</ele>
        <time>2016-08-24T13:36:01Z</time>
      </trkpt>
      <trkpt lat="47.34678" lon="-3.1442">
        <ele>-1.3</ele>
        <time>2016-08-24T13:36:19Z</time>
      </trkpt>
      <trkpt lat="47.34647" lon="-3.14434">
        <ele>-0.82</ele>
        <time>2016-08-24T13:36:43Z</time>
      </trkpt>
      <trkpt lat="47.34624" lon="-3.1443">
        <ele>0.62</ele>
        <time>2016-08-24T13:37:04Z</time>
      </trkpt>
      <trkpt lat="47.34605" lon="-3.14424">
        <ele>0.14</ele>
        <time>2016-08-24T13:37:25Z</time>
      </trkpt>
      <trkpt lat="47.34583" lon="-3.1442">
        <ele>-0.34</ele>
        <time>2016-08-24T13:37:48Z</time>
      </trkpt>
      <trkpt lat="47.34564" lon="-3.14437">
        <ele>-1.3</ele>
        <time>2016-08-24T13:38:10Z</time>
      </trkpt>
      <trkpt lat="47.34546" lon="-3.14451">
        <ele>-0.82</ele>
        <time>2016-08-24T13:38:31Z</time>
      </trkpt>
      <trkpt lat="47.34525" lon="-3.14456">
        <ele>-0.82</ele>
        <time>2016-08-24T13:38:52Z</time>
      </trkpt>
      <trkpt lat="47.34521" lon="-3.14482">
        <ele>-1.3</ele>
        <time>2016-08-24T13:39:09Z</time>
      </trkpt>
      <trkpt lat="47.34538" lon="-3.14514">
        <ele>-0.34</ele>
        <time>2016-08-24T13:39:31Z</time>
      </trkpt>
      <trkpt lat="47.34558" lon="-3.14528">
        <ele>-0.82</ele>
        <time>2016-08-24T13:39:52Z</time>
      </trkpt>
      <trkpt lat="47.34575" lon="-3.14553">
        <ele>-0.34</ele>
        <time>2016-08-24T13:40:17Z</time>
      </trkpt>
      <trkpt lat="47.34588" lon="-3.14582">
        <ele>0.14</ele>
        <time>2016-08-24T13:40:41Z</time>
      </trkpt>
      <trkpt lat="47.34599" lon="-3.14607">
        <ele>0.14</ele>
        <time>2016-08-24T13:41:03Z</time>
      </trkpt>
      <trkpt lat="47.34605" lon="-3.14612">
        <ele>-0.34</ele>
        <time>2016-08-24T13:41:11Z</time>
      </trkpt>
      <trkpt lat="47.34615" lon="-3.14612">
        <ele>0.14</ele>
        <time>2016-08-24T13:41:22Z</time>
      </trkpt>
      <trkpt lat="47.34632" lon="-3.14594">
        <ele>-0.34</ele>
        <time>2016-08-24T13:41:42Z</time>
      </trkpt>
      <trkpt lat="47.34657" lon="-3.14575">
        <ele>-0.34</ele>
        <time>2016-08-24T13:42:07Z</time>
      </trkpt>
      <trkpt lat="47.34682" lon="-3.14568">
        <ele>0.14</ele>
        <time>2016-08-24T13:42:32Z</time>
      </trkpt>
      <trkpt lat="47.34687" lon="-3.14572">
        <ele>0.14</ele>
        <time>2016-08-24T13:42:37Z</time>
      </trkpt>
      <trkpt lat="47.34691" lon="-3.14582">
        <ele>0.14</ele>
        <time>2016-08-24T13:42:45Z</time>
      </trkpt>
      <trkpt lat="47.34694" lon="-3.14617">
        <ele>2.06</ele>
        <time>2016-08-24T13:43:08Z</time>
      </trkpt>
      <trkpt lat="47.34696" lon="-3.14645">
        <ele>2.06</ele>
        <time>2016-08-24T13:43:28Z</time>
      </trkpt>
      <trkpt lat="47.34695" lon="-3.14679">
        <ele>2.54</ele>
        <time>2016-08-24T13:43:51Z</time>
      </trkpt>
      <trkpt lat="47.34691" lon="-3.14712">
        <ele>1.58</ele>
        <time>2016-08-24T13:44:12Z</time>
      </trkpt>
      <trkpt lat="47.34684" lon="-3.14749">
        <ele>0.62</ele>
        <time>2016-08-24T13:44:35Z</time>
      </trkpt>
      <trkpt lat="47.34676" lon="-3.14783">
        <ele>0.62</ele>
        <time>2016-08-24T13:44:56Z</time>
      </trkpt>
      <trkpt lat="47.3467" lon="-3.14816">
        <ele>-0.34</ele>
        <time>2016-08-24T13:45:16Z</time>
      </trkpt>
      <trkpt lat="47.34666" lon="-3.14851">
        <ele>0.62</ele>
        <time>2016-08-24T13:45:38Z</time>
      </trkpt>
      <trkpt lat="47.34664" lon="-3.14881">
        <ele>0.14</ele>
        <time>2016-08-24T13:45:58Z</time>
      </trkpt>
      <trkpt lat="47.34669" lon="-3.14903">
        <ele>0.14</ele>
        <time>2016-08-24T13:46:17Z</time>
      </trkpt>
      <trkpt lat="47.34673" lon="-3.14934">
        <ele>-0.34</ele>
        <time>2016-08-24T13:46:36Z</time>
      </trkpt>
      <trkpt lat="47.34679" lon="-3.14977">
        <ele>-0.34</ele>
        <time>2016-08-24T13:46:57Z</time>
      </trkpt>
      <trkpt lat="47.34687" lon="-3.15019">
        <ele>-1.3</ele>
        <time>2016-08-24T13:47:21Z</time>
      </trkpt>
      <trkpt lat="47.34697" lon="-3.1505">
        <ele>-2.27</ele>
        <time>2016-08-24T13:47:46Z</time>
      </trkpt>
      <trkpt lat="47.3471" lon="-3.1508">
        <ele>-0.82</ele>
        <time>2016-08-24T13:48:13Z</time>
      </trkpt>
      <trkpt lat="47.34719" lon="-3.15116">
        <ele>0.62</ele>
        <time>2016-08-24T13:48:42Z</time>
      </trkpt>
      <trkpt lat="47.34731" lon="-3.15148">
        <ele>4.94</ele>
        <time>2016-08-24T13:49:10Z</time>
      </trkpt>
      <trkpt lat="47.34744" lon="-3.15168">
        <ele>4.46</ele>
        <time>2016-08-24T13:49:35Z</time>
      </trkpt>
      <trkpt lat="47.34757" lon="-3.15172">
        <ele>3.98</ele>
        <time>2016-08-24T13:49:56Z</time>
      </trkpt>
      <trkpt lat="47.34738" lon="-3.15183">
        <ele>3.5</ele>
        <time>2016-08-24T13:50:22Z</time>
      </trkpt>
      <trkpt lat="47.34725" lon="-3.1519">
        <ele>1.58</ele>
        <time>2016-08-24T13:50:53Z</time>
      </trkpt>
      <trkpt lat="47.34721" lon="-3.15193">
        <ele>1.58</ele>
        <time>2016-08-24T13:51:23Z</time>
      </trkpt>
      <trkpt lat="47.34721" lon="-3.15193">
        <ele>1.1</ele>
        <time>2016-08-24T13:51:48Z</time>
      </trkpt>
      <trkpt lat="47.34721" lon="-3.15195">
        <ele>1.58</ele>
        <time>2016-08-24T13:52:18Z</time>
      </trkpt>
      <trkpt lat="47.3472" lon="-3.15196">
        <ele>1.58</ele>
        <time>2016-08-24T13:52:49Z</time>
      </trkpt>
      <trkpt lat="47.34719" lon="-3.15197">
        <ele>1.1</ele>
        <time>2016-08-24T13:53:23Z</time>
      </trkpt>
      <trkpt lat="47.34719" lon="-3.15197">
        <ele>1.1</ele>
        <time>2016-08-24T13:53:50Z</time>
      </trkpt>
      <trkpt lat="47.34718" lon="-3.15197">
        <ele>2.06</ele>
        <time>2016-08-24T13:54:19Z</time>
      </trkpt>
      <trkpt lat="47.34717" lon="-3.15197">
        <ele>1.58</ele>
        <time>2016-08-24T13:54:53Z</time>
      </trkpt>
      <trkpt lat="47.34716" lon="-3.15197">
        <ele>2.06</ele>
        <time>2016-08-24T13:55:30Z</time>
      </trkpt>
      <trkpt lat="47.34716" lon="-3.15198">
        <ele>2.54</ele>
        <time>2016-08-24T13:56:00Z</time>
      </trkpt>
      <trkpt lat="47.34716" lon="-3.15198">
        <ele>2.06</ele>
        <time>2016-08-24T13:56:36Z</time>
      </trkpt>
      <trkpt lat="47.34716" lon="-3.15198">
        <ele>1.1</ele>
        <time>2016-08-24T13:57:05Z</time>
      </trkpt>
      <trkpt lat="47.34716" lon="-3.15197">
        <ele>1.1</ele>
        <time>2016-08-24T13:57:39Z</time>
      </trkpt>
      <trkpt lat="47.34716" lon="-3.15198">
        <ele>1.1</ele>
        <time>2016-08-24T13:58:08Z</time>
      </trkpt>
      <trkpt lat="47.34715" lon="-3.15198">
        <ele>1.1</ele>
        <time>2016-08-24T13:58:47Z</time>
      </trkpt>
      <trkpt lat="47.34715" lon="-3.15198">
        <ele>1.58</ele>
        <time>2016-08-24T13:59:29Z</time>
      </trkpt>
      <trkpt lat="47.34715" lon="-3.15199">
        <ele>1.58</ele>
        <time>2016-08-24T14:00:05Z</time>
      </trkpt>
      <trkpt lat="47.34715" lon="-3.15198">
        <ele>1.1</ele>
        <time>2016-08-24T14:00:35Z</time>
      </trkpt>
      <trkpt lat="47.34716" lon="-3.15199">
        <ele>1.58</ele>
        <time>2016-08-24T14:01:16Z</time>
      </trkpt>
      <trkpt lat="47.34715" lon="-3.15199">
        <ele>1.1</ele>
        <time>2016-08-24T14:01:49Z</time>
      </trkpt>
      <trkpt lat="47.34715" lon="-3.15199">
        <ele>1.58</ele>
        <time>2016-08-24T14:02:24Z</time>
      </trkpt>
      <trkpt lat="47.34715" lon="-3.15197">
        <ele>2.06</ele>
        <time>2016-08-24T14:03:03Z</time>
      </trkpt>
      <trkpt lat="47.34715" lon="-3.15198">
        <ele>2.06</ele>
        <time>2016-08-24T14:03:38Z</time>
      </trkpt>
      <trkpt lat="47.34716" lon="-3.15198">
        <ele>2.06</ele>
        <time>2016-08-24T14:04:12Z</time>
      </trkpt>
      <trkpt lat="47.34716" lon="-3.15199">
        <ele>2.54</ele>
        <time>2016-08-24T14:04:44Z</time>
      </trkpt>
      <trkpt lat="47.34716" lon="-3.15198">
        <ele>2.06</ele>
        <time>2016-08-24T14:05:20Z</time>
      </trkpt>
      <trkpt lat="47.34716" lon="-3.15198">
        <ele>1.1</ele>
        <time>2016-08-24T14:05:59Z</time>
      </trkpt>
      <trkpt lat="47.34715" lon="-3.15198">
        <ele>1.1</ele>
        <time>2016-08-24T14:06:32Z</time>
      </trkpt>
      <trkpt lat="47.34715" lon="-3.15198">
        <ele>1.58</ele>
        <time>2016-08-24T14:07:03Z</time>
      </trkpt>
      <trkpt lat="47.34715" lon="-3.15198">
        <ele>1.1</ele>
        <time>2016-08-24T14:07:37Z</time>
      </trkpt>
      <trkpt lat="47.34715" lon="-3.15198">
        <ele>1.1</ele>
        <time>2016-08-24T14:08:12Z</time>
      </trkpt>
      <trkpt lat="47.34715" lon="-3.15199">
        <ele>1.58</ele>
        <time>2016-08-24T14:08:39Z</time>
      </trkpt>
      <trkpt lat="47.34716" lon="-3.15199">
        <ele>2.06</ele>
        <time>2016-08-24T14:09:17Z</time>
      </trkpt>
      <trkpt lat="47.34716" lon="-3.15199">
        <ele>2.06</ele>
        <time>2016-08-24T14:09:52Z</time>
      </trkpt>
      <trkpt lat="47.34716" lon="-3.15199">
        <ele>1.58</ele>
        <time>2016-08-24T14:10:30Z</time>
      </trkpt>
      <trkpt lat="47.34716" lon="-3.15198">
        <ele>1.58</ele>
        <time>2016-08-24T14:11:03Z</time>
      </trkpt>
      <trkpt lat="47.34716" lon="-3.15199">
        <ele>2.06</ele>
        <time>2016-08-24T14:11:30Z</time>
      </trkpt>
      <trkpt lat="47.34716" lon="-3.15199">
        <ele>1.58</ele>
        <time>2016-08-24T14:12:04Z</time>
      </trkpt>
      <trkpt lat="47.34716" lon="-3.15199">
        <ele>2.54</ele>
        <time>2016-08-24T14:12:34Z</time>
      </trkpt>
      <trkpt lat="47.34716" lon="-3.15199">
        <ele>3.02</ele>
        <time>2016-08-24T14:13:05Z</time>
      </trkpt>
      <trkpt lat="47.34716" lon="-3.15199">
        <ele>3.02</ele>
        <time>2016-08-24T14:13:44Z</time>
      </trkpt>
      <trkpt lat="47.34716" lon="-3.15199">
        <ele>3.5</ele>
        <time>2016-08-24T14:14:20Z</time>
      </trkpt>
      <trkpt lat="47.34716" lon="-3.15199">
        <ele>3.02</ele>
        <time>2016-08-24T14:14:59Z</time>
      </trkpt>
      <trkpt lat="47.34716" lon="-3.15198">
        <ele>3.5</ele>
        <time>2016-08-24T14:15:32Z</time>
      </trkpt>
      <trkpt lat="47.34716" lon="-3.15198">
        <ele>3.02</ele>
        <time>2016-08-24T14:16:04Z</time>
      </trkpt>
      <trkpt lat="47.34716" lon="-3.15199">
        <ele>2.54</ele>
        <time>2016-08-24T14:16:39Z</time>
      </trkpt>
      <trkpt lat="47.34716" lon="-3.15199">
        <ele>1.58</ele>
        <time>2016-08-24T14:17:12Z</time>
      </trkpt>
      <trkpt lat="47.34717" lon="-3.15198">
        <ele>1.1</ele>
        <time>2016-08-24T14:17:47Z</time>
      </trkpt>
      <trkpt lat="47.34717" lon="-3.15199">
        <ele>1.1</ele>
        <time>2016-08-24T14:18:22Z</time>
      </trkpt>
      <trkpt lat="47.34717" lon="-3.15198">
        <ele>1.1</ele>
        <time>2016-08-24T14:18:55Z</time>
      </trkpt>
      <trkpt lat="47.34716" lon="-3.15198">
        <ele>1.1</ele>
        <time>2016-08-24T14:19:28Z</time>
      </trkpt>
      <trkpt lat="47.34716" lon="-3.15198">
        <ele>1.1</ele>
        <time>2016-08-24T14:20:05Z</time>
      </trkpt>
      <trkpt lat="47.34716" lon="-3.15198">
        <ele>0.62</ele>
        <time>2016-08-24T14:20:42Z</time>
      </trkpt>
      <trkpt lat="47.34716" lon="-3.15198">
        <ele>0.62</ele>
        <time>2016-08-24T14:21:15Z</time>
      </trkpt>
      <trkpt lat="47.34716" lon="-3.15198">
        <ele>1.58</ele>
        <time>2016-08-24T14:21:43Z</time>
      </trkpt>
      <trkpt lat="47.34717" lon="-3.15198">
        <ele>2.54</ele>
        <time>2016-08-24T14:22:23Z</time>
      </trkpt>
      <trkpt lat="47.34717" lon="-3.15199">
        <ele>3.02</ele>
        <time>2016-08-24T14:22:58Z</time>
      </trkpt>
      <trkpt lat="47.34717" lon="-3.15199">
        <ele>3.02</ele>
        <time>2016-08-24T14:23:32Z</time>
      </trkpt>
      <trkpt lat="47.34716" lon="-3.15199">
        <ele>3.98</ele>
        <time>2016-08-24T14:24:09Z</time>
      </trkpt>
      <trkpt lat="47.34716" lon="-3.15199">
        <ele>4.46</ele>
        <time>2016-08-24T14:24:43Z</time>
      </trkpt>
      <trkpt lat="47.34716" lon="-3.15199">
        <ele>4.94</ele>
        <time>2016-08-24T14:25:17Z</time>
      </trkpt>
      <trkpt lat="47.34716" lon="-3.15198">
        <ele>5.91</ele>
        <time>2016-08-24T14:25:52Z</time>
      </trkpt>
      <trkpt lat="47.34716" lon="-3.15199">
        <ele>5.91</ele>
        <time>2016-08-24T14:26:25Z</time>
      </trkpt>
      <trkpt lat="47.34716" lon="-3.15199">
        <ele>6.87</ele>
        <time>2016-08-24T14:27:09Z</time>
      </trkpt>
      <trkpt lat="47.34715" lon="-3.15198">
        <ele>7.35</ele>
        <time>2016-08-24T14:27:45Z</time>
      </trkpt>
      <trkpt lat="47.34716" lon="-3.15198">
        <ele>6.87</ele>
        <time>2016-08-24T14:28:17Z</time>
      </trkpt>
      <trkpt lat="47.34715" lon="-3.15197">
        <ele>7.35</ele>
        <time>2016-08-24T14:28:48Z</time>
      </trkpt>
    </trkseg>
  </trk>
</gpx>